createdAt,value
2018-01-27T00:02:10.984Z,42.40
2018-01-27T00:04:37.302Z,38.95
2018-01-27T00:07:04.476Z,36.10
2018-01-27T00:09:31.037Z,35.80
2018-01-27T00:11:57.128Z,34.08
2018-01-27T00:14:23.201Z,34.28
2018-01-27T00:16:49.254Z,32.67
2018-01-27T00:19:15.293Z,34.38
2018-01-27T00:21:42.069Z,31.77
2018-01-27T00:24:08.117Z,34.55
2018-01-27T00:26:34.366Z,35.50
2018-01-27T00:29:00.417Z,35.42
2018-01-27T00:31:27.189Z,35.00
2018-01-27T00:33:54.157Z,34.20
2018-01-27T00:36:20.198Z,45.40
2018-01-27T00:38:47.336Z,42.60
2018-01-27T00:41:14.209Z,46.50
2018-01-27T00:43:40.233Z,44.00
2018-01-27T00:46:07.029Z,41.22
2018-01-27T00:48:33.086Z,37.47
2018-01-27T00:50:59.107Z,38.42
2018-01-27T00:53:25.160Z,35.42
2018-01-27T00:55:51.165Z,36.83
2018-01-27T00:58:17.202Z,41.07
2018-01-27T01:00:43.252Z,44.25
2018-01-27T01:03:09.280Z,36.30
2018-01-27T01:05:35.305Z,33.42
2018-01-27T01:08:01.728Z,38.17
2018-01-27T01:10:28.689Z,37.10
2018-01-27T01:12:55.456Z,43.83
2018-01-27T01:15:21.542Z,39.03
2018-01-27T01:17:47.850Z,37.80
2018-01-27T01:20:14.226Z,42.78
2018-01-27T01:22:40.528Z,44.92
2018-01-27T01:25:07.489Z,43.92
2018-01-27T01:27:34.601Z,43.42
2018-01-27T01:30:00.804Z,40.53
2018-01-27T01:32:27.081Z,35.97
2018-01-27T01:34:53.305Z,55.97
2018-01-27T01:37:19.496Z,42.85
2018-01-27T01:39:45.753Z,40.22
2018-01-27T01:42:18.215Z,40.60
2018-01-27T01:44:44.420Z,40.65
2018-01-27T01:47:10.669Z,36.25
2018-01-27T01:49:37.065Z,42.25
2018-01-27T01:52:03.268Z,37.90
2018-01-27T01:54:29.501Z,41.45
2018-01-27T01:56:55.697Z,44.63
2018-01-27T01:59:21.921Z,47.85
2018-01-27T02:01:48.873Z,44.45
2018-01-27T02:04:15.108Z,42.95
2018-01-27T02:06:41.285Z,41.80
2018-01-27T02:09:07.496Z,44.35
2018-01-27T02:11:33.765Z,42.88
2018-01-27T02:14:00.000Z,41.40
2018-01-27T02:16:26.223Z,43.92
2018-01-27T02:18:52.432Z,40.25
2018-01-27T02:21:18.532Z,41.78
2018-01-27T02:23:44.557Z,34.85
2018-01-27T02:26:10.600Z,34.60
2018-01-27T02:28:36.619Z,37.88
2018-01-27T02:31:05.629Z,37.03
2018-01-27T02:33:32.389Z,39.15
2018-01-27T02:35:59.389Z,40.45
2018-01-27T02:38:26.512Z,46.10
2018-01-27T02:40:52.844Z,43.33
2018-01-27T02:43:19.984Z,39.92
2018-01-27T02:45:46.964Z,43.95
2018-01-27T02:48:13.332Z,39.03
2018-01-27T02:50:40.312Z,38.47
2018-01-27T02:53:06.747Z,41.75
2018-01-27T02:55:33.208Z,41.10
2018-01-27T02:58:00.197Z,41.47
2018-01-27T03:00:26.434Z,37.92
2018-01-27T03:02:52.638Z,41.42
2018-01-27T03:05:19.179Z,42.05
2018-01-27T03:07:45.408Z,40.63
2018-01-27T03:10:11.702Z,35.20
2018-01-27T03:12:38.021Z,42.83
2018-01-27T03:15:04.984Z,38.95
2018-01-27T03:17:31.208Z,40.80
2018-01-27T03:19:57.444Z,37.03
2018-01-27T03:22:23.656Z,38.53
2018-01-27T03:24:49.876Z,42.03
2018-01-27T03:27:16.845Z,33.50
2018-01-27T03:29:43.071Z,36.87
2018-01-27T03:32:10.024Z,42.85
2018-01-27T03:34:36.224Z,37.83
2018-01-27T03:37:02.456Z,45.83
2018-01-27T03:39:28.649Z,39.08
2018-01-27T03:41:55.620Z,39.83
2018-01-27T03:44:21.839Z,38.63
2018-01-27T03:46:48.053Z,41.92
2018-01-27T03:49:14.297Z,46.30
2018-01-27T03:51:41.911Z,42.15
2018-01-27T03:54:08.196Z,42.85
2018-01-27T03:56:34.396Z,36.28
2018-01-27T03:59:00.624Z,39.37
2018-01-27T04:01:26.864Z,45.87
2018-01-27T04:03:53.836Z,47.97
2018-01-27T04:06:20.047Z,42.80
2018-01-27T04:08:46.265Z,36.33
2018-01-27T04:11:12.469Z,44.45
2018-01-27T04:13:40.037Z,41.85
2018-01-27T04:16:06.332Z,41.83
2018-01-27T04:18:32.543Z,40.80
2018-01-27T04:20:58.768Z,37.47
2018-01-27T04:23:24.992Z,40.78
2018-01-27T04:25:51.945Z,46.35
2018-01-27T04:28:18.908Z,45.70
2018-01-27T04:30:45.468Z,44.33
2018-01-27T04:33:12.404Z,37.78
2018-01-27T04:35:38.639Z,43.67
2018-01-27T04:38:07.612Z,40.70
2018-01-27T04:40:33.884Z,46.97
2018-01-27T04:43:01.945Z,42.60
2018-01-27T04:45:28.185Z,44.10
2018-01-27T04:47:54.425Z,39.47
2018-01-27T04:50:20.665Z,42.08
2018-01-27T04:52:46.852Z,46.08
2018-01-27T04:55:13.808Z,49.65
2018-01-27T04:57:40.032Z,48.13
2018-01-27T05:00:06.244Z,45.63
2018-01-27T05:02:32.447Z,47.20
2018-01-27T05:04:58.659Z,47.47
2018-01-27T05:07:25.416Z,52.28
2018-01-27T05:09:51.434Z,57.00
2018-01-27T05:12:18.221Z,53.95
2018-01-27T05:14:44.240Z,53.38
2018-01-27T05:17:11.003Z,52.10
2018-01-27T05:19:37.115Z,52.20
2018-01-27T05:22:03.144Z,59.28
2018-01-27T05:24:29.188Z,57.95
2018-01-27T05:26:55.206Z,58.13
2018-01-27T05:29:22.172Z,60.97
2018-01-27T05:31:48.196Z,51.83
2018-01-27T05:34:14.227Z,53.67
2018-01-27T05:36:40.268Z,57.62
2018-01-27T05:39:06.284Z,62.60
2018-01-27T05:41:32.308Z,50.45
2018-01-27T05:43:58.333Z,60.25
2018-01-27T05:46:24.356Z,59.30
2018-01-27T05:48:51.126Z,66.70
2018-01-27T05:51:17.161Z,64.70
2018-01-27T05:53:43.192Z,54.35
2018-01-27T05:56:09.204Z,53.33
2018-01-27T05:58:35.264Z,53.20
2018-01-27T06:01:01.305Z,61.47
2018-01-27T06:03:28.055Z,63.65
2018-01-27T06:05:54.825Z,58.40
2018-01-27T06:08:20.860Z,50.12
2018-01-27T06:10:46.885Z,49.33
2018-01-27T06:13:13.694Z,48.20
2018-01-27T06:15:39.764Z,52.58
2018-01-27T06:18:06.571Z,50.40
2018-01-27T06:20:32.565Z,65.57
2018-01-27T06:23:01.884Z,54.58
2018-01-27T06:25:28.846Z,54.58
2018-01-27T06:27:55.076Z,53.17
2018-01-27T06:30:21.920Z,56.33
2018-01-27T06:32:49.053Z,51.33
2018-01-27T06:35:16.117Z,50.17
2018-01-27T06:37:42.396Z,54.30
2018-01-27T06:40:08.594Z,57.30
2018-01-27T06:42:34.833Z,57.90
2018-01-27T06:45:07.231Z,55.05
2018-01-27T06:47:33.265Z,57.58
2018-01-27T06:49:59.324Z,57.78
2018-01-27T06:52:26.312Z,59.15
2018-01-27T06:54:53.228Z,69.80
2018-01-27T06:57:19.468Z,58.63
2018-01-27T06:59:45.704Z,60.05
2018-01-27T07:02:11.917Z,63.35
2018-01-27T07:04:38.260Z,68.57
2018-01-27T07:07:04.483Z,60.90
2018-01-27T07:09:30.696Z,66.87
2018-01-27T07:11:56.948Z,61.13
2018-01-27T07:14:23.199Z,63.78
2018-01-27T07:16:49.428Z,59.33
2018-01-27T07:19:15.656Z,63.15
2018-01-27T07:21:41.980Z,61.05
2018-01-27T07:24:08.212Z,63.22
2018-01-27T07:26:34.520Z,67.68
2018-01-27T07:29:00.719Z,62.53
2018-01-27T07:31:26.935Z,63.17
2018-01-27T07:33:53.163Z,61.13
2018-01-27T07:36:19.378Z,69.00
2018-01-27T07:38:45.864Z,65.90
2018-01-27T07:41:12.099Z,58.63
2018-01-27T07:43:38.564Z,74.20
2018-01-27T07:46:04.781Z,72.32
2018-01-27T07:48:31.017Z,66.80
2018-01-27T07:50:57.233Z,65.75
2018-01-27T07:53:23.523Z,75.43
2018-01-27T07:55:49.752Z,75.85
2018-01-27T07:58:15.961Z,59.65
2018-01-27T08:00:45.319Z,67.40
2018-01-27T08:03:11.532Z,71.47
2018-01-27T08:05:39.468Z,68.00
2018-01-27T08:08:06.453Z,69.60
2018-01-27T08:10:32.481Z,68.45
2018-01-27T08:12:58.512Z,61.90
2018-01-27T08:15:24.733Z,59.28
2018-01-27T08:17:51.729Z,66.75
2018-01-27T08:20:18.365Z,63.05
2018-01-27T08:22:45.331Z,59.95
2018-01-27T08:25:12.261Z,70.87
2018-01-27T08:27:38.655Z,74.82
2018-01-27T08:30:08.968Z,81.82
2018-01-27T08:32:35.197Z,68.10
2018-01-27T08:35:02.169Z,85.20
2018-01-27T08:37:28.172Z,78.12
2018-01-27T08:39:54.421Z,79.32
2018-01-27T08:42:22.209Z,74.12
2018-01-27T08:44:48.428Z,66.62
2018-01-27T08:47:14.644Z,70.68
2018-01-27T08:49:40.929Z,58.08
2018-01-27T08:52:08.737Z,64.00
2018-01-27T08:54:34.956Z,61.13
2018-01-27T08:57:01.908Z,61.03
2018-01-27T08:59:28.856Z,58.90
2018-01-27T09:01:55.066Z,57.03
2018-01-27T09:04:21.256Z,57.55
2018-01-27T09:06:47.537Z,65.95
2018-01-27T09:09:13.734Z,62.13
2018-01-27T09:11:40.509Z,56.37
2018-01-27T09:14:06.825Z,58.78
2018-01-27T09:16:33.593Z,56.22
2018-01-27T09:18:59.619Z,58.92
2018-01-27T09:21:27.726Z,61.70
2018-01-27T09:23:54.065Z,60.30
2018-01-27T09:26:20.104Z,59.25
2018-01-27T09:28:46.134Z,62.97
2018-01-27T09:31:12.180Z,51.42
2018-01-27T09:33:38.368Z,58.20
2018-01-27T09:36:04.397Z,59.47
2018-01-27T09:38:30.739Z,55.70
2018-01-27T09:40:57.092Z,63.10
2018-01-27T09:43:23.298Z,57.35
2018-01-27T09:45:49.536Z,56.83
2018-01-27T09:48:15.756Z,59.35
2018-01-27T09:50:42.069Z,52.05
2018-01-27T09:53:09.324Z,55.55
2018-01-27T09:55:35.341Z,55.58
2018-01-27T09:58:01.374Z,54.10
2018-01-27T10:00:27.960Z,45.47
2018-01-27T10:02:54.968Z,52.22
2018-01-27T10:05:21.175Z,53.30
2018-01-27T10:07:47.393Z,45.15
2018-01-27T10:10:13.603Z,60.27
2018-01-27T10:12:39.836Z,42.03
2018-01-27T10:15:06.070Z,47.87
2018-01-27T10:17:33.128Z,46.13
2018-01-27T10:20:00.160Z,47.83
2018-01-27T10:22:27.153Z,47.20
2018-01-27T10:24:53.377Z,51.37
2018-01-27T10:27:19.848Z,51.28
2018-01-27T10:29:46.096Z,50.03
2018-01-27T10:32:12.604Z,54.35
2018-01-27T10:34:38.844Z,49.00
2018-01-27T10:37:05.088Z,56.30
2018-01-27T10:39:31.304Z,57.93
2018-01-27T10:41:58.272Z,48.75
2018-01-27T10:44:25.230Z,61.87
2018-01-27T10:46:51.504Z,47.90
2018-01-27T10:49:17.737Z,51.60
2018-01-27T10:51:44.037Z,53.47
2018-01-27T10:54:11.094Z,54.13
2018-01-27T10:56:38.105Z,48.75
2018-01-27T10:59:04.329Z,42.53
2018-01-27T11:01:31.273Z,47.60
2018-01-27T11:03:59.709Z,43.97
2018-01-27T11:06:26.007Z,45.03
2018-01-27T11:08:55.133Z,54.17
2018-01-27T11:11:22.080Z,44.72
2018-01-27T11:13:49.077Z,47.30
2018-01-27T11:16:15.313Z,42.45
2018-01-27T11:18:41.593Z,36.85
2018-01-27T11:21:07.836Z,39.58
2018-01-27T11:23:33.945Z,39.00
2018-01-27T11:26:03.125Z,42.23
2018-01-27T11:28:30.001Z,40.93
2018-01-27T11:30:56.992Z,43.17
2018-01-27T11:33:23.148Z,39.60
2018-01-27T11:35:49.916Z,38.73
2018-01-27T11:38:17.521Z,39.27
2018-01-27T11:40:43.733Z,35.00
2018-01-27T11:43:09.936Z,38.77
2018-01-27T11:45:36.283Z,41.77
2018-01-27T11:48:02.550Z,42.28
2018-01-27T11:50:28.764Z,35.87
2018-01-27T11:52:55.022Z,38.00
2018-01-27T11:55:21.992Z,33.60
2018-01-27T11:57:48.231Z,37.53
2018-01-27T12:00:15.184Z,37.90
2018-01-27T12:02:42.190Z,32.93
2018-01-27T12:05:09.041Z,27.07
2018-01-27T12:07:35.068Z,31.43
2018-01-27T12:10:05.159Z,32.53
2018-01-27T12:12:31.148Z,34.83
2018-01-27T12:14:57.165Z,35.00
2018-01-27T12:17:23.225Z,38.80
2018-01-27T12:19:49.453Z,33.17
2018-01-27T12:22:16.392Z,32.50
2018-01-27T12:24:45.101Z,32.93
2018-01-27T12:27:12.053Z,31.47
2018-01-27T12:29:39.317Z,33.37
2018-01-27T12:32:05.544Z,36.53
2018-01-27T12:34:32.526Z,39.30
2018-01-27T12:36:59.765Z,33.30
2018-01-27T12:39:26.757Z,35.10
2018-01-27T12:41:52.764Z,40.40
2018-01-27T12:44:18.984Z,36.80
2018-01-27T12:46:45.361Z,33.00
2018-01-27T12:49:11.620Z,31.47
2018-01-27T12:51:37.857Z,30.90
2018-01-27T12:54:04.151Z,33.23
2018-01-27T12:56:31.305Z,26.47
2018-01-27T12:58:58.209Z,29.23
2018-01-27T13:01:24.521Z,26.30
2018-01-27T13:03:50.746Z,23.07
2018-01-27T13:06:16.982Z,23.83
2018-01-27T13:08:43.440Z,19.97
2018-01-27T13:11:09.661Z,27.83
2018-01-27T13:13:35.951Z,23.53
2018-01-27T13:16:01.987Z,28.20
2018-01-27T13:18:28.745Z,23.40
2018-01-27T13:20:55.504Z,22.90
2018-01-27T13:23:21.521Z,31.10
2018-01-27T13:25:49.628Z,25.20
2018-01-27T13:28:18.114Z,25.67
2018-01-27T13:30:44.319Z,30.43
2018-01-27T13:33:10.545Z,28.63
2018-01-27T13:35:36.860Z,26.27
2018-01-27T13:38:03.376Z,25.30
2018-01-27T13:40:29.597Z,25.10
2018-01-27T13:42:59.342Z,23.77
2018-01-27T13:45:25.572Z,28.33
2018-01-27T13:47:51.808Z,26.30
2018-01-27T13:50:17.830Z,24.60
2018-01-27T13:52:43.856Z,22.43
2018-01-27T13:55:09.880Z,21.30
2018-01-27T13:57:36.780Z,23.43
2018-01-27T14:00:06.643Z,19.27
2018-01-27T14:02:32.919Z,20.87
2018-01-27T14:04:59.158Z,22.47
2018-01-27T14:07:26.180Z,29.97
2018-01-27T14:09:52.393Z,22.63
2018-01-27T14:12:18.616Z,22.63
2018-01-27T14:14:45.984Z,25.40
2018-01-27T14:17:12.947Z,23.43
2018-01-27T14:19:39.189Z,24.23
2018-01-27T14:22:05.468Z,21.10
2018-01-27T14:24:31.746Z,22.33
2018-01-27T14:26:58.717Z,23.40
2018-01-27T14:29:25.684Z,24.67
2018-01-27T14:31:51.980Z,23.17
2018-01-27T14:34:19.209Z,20.87
2018-01-27T14:36:45.240Z,24.37
2018-01-27T14:39:11.466Z,27.27
2018-01-27T14:41:37.713Z,27.67
2018-01-27T14:44:04.720Z,25.47
2018-01-27T14:46:36.600Z,25.87
2018-01-27T14:49:04.621Z,25.23
2018-01-27T14:51:30.872Z,23.67
2018-01-27T14:53:57.136Z,27.90
2018-01-27T14:56:23.380Z,25.57
2018-01-27T14:58:49.619Z,23.80
2018-01-27T15:01:15.685Z,25.50
2018-01-27T15:03:41.705Z,24.77
2018-01-27T15:06:07.757Z,26.53
2018-01-27T15:08:33.799Z,23.03
2018-01-27T15:10:59.904Z,22.70
2018-01-27T15:13:25.928Z,26.50
2018-01-27T15:15:51.964Z,23.90
2018-01-27T15:18:17.980Z,25.90
2018-01-27T15:20:44.015Z,23.40
2018-01-27T15:23:10.062Z,21.90
2018-01-27T15:25:36.117Z,22.53
2018-01-27T15:28:02.340Z,22.27
2018-01-27T15:30:29.071Z,23.87
2018-01-27T15:32:57.153Z,23.60
2018-01-27T15:35:23.360Z,22.33
2018-01-27T15:37:49.590Z,20.87
2018-01-27T15:40:15.904Z,25.57
2018-01-27T15:42:42.933Z,21.90
2018-01-27T15:45:12.084Z,21.33
2018-01-27T15:47:38.372Z,21.30
2018-01-27T15:50:04.595Z,23.40
2018-01-27T15:52:30.833Z,21.23
2018-01-27T15:54:57.058Z,19.75
2018-01-27T15:57:23.312Z,23.67
2018-01-27T15:59:49.586Z,24.10
2018-01-27T16:02:15.876Z,22.43
2018-01-27T16:04:42.113Z,22.23
2018-01-27T16:07:08.484Z,21.57
2018-01-27T16:09:34.743Z,21.47
2018-01-27T16:12:01.041Z,22.52
2018-01-27T16:14:28.108Z,25.10
2018-01-27T16:16:54.341Z,22.17
2018-01-27T16:19:20.780Z,22.27
2018-01-27T16:21:47.151Z,21.27
2018-01-27T16:24:13.377Z,20.90
2018-01-27T16:26:39.608Z,19.77
2018-01-27T16:29:05.883Z,26.63
2018-01-27T16:31:32.129Z,22.25
2018-01-27T16:33:58.380Z,23.10
2018-01-27T16:36:24.632Z,25.75
2018-01-27T16:38:51.628Z,24.55
2018-01-27T16:41:17.856Z,26.77
2018-01-27T16:43:44.831Z,27.00
2018-01-27T16:46:11.997Z,30.27
2018-01-27T16:48:38.329Z,38.55
2018-01-27T16:51:04.566Z,31.35
2018-01-27T16:53:30.575Z,28.27
2018-01-27T16:56:01.144Z,34.17
2018-01-27T16:58:27.922Z,31.52
2018-01-27T17:00:53.957Z,31.60
2018-01-27T17:03:19.985Z,27.37
2018-01-27T17:05:46.052Z,29.73
2018-01-27T17:08:12.089Z,28.33
2018-01-27T17:10:38.126Z,27.73
2018-01-27T17:13:06.743Z,31.02
2018-01-27T17:15:33.168Z,25.20
2018-01-27T17:17:59.201Z,26.25
2018-01-27T17:20:25.227Z,26.98
2018-01-27T17:22:51.251Z,24.77
2018-01-27T17:25:17.459Z,25.60
2018-01-27T17:27:43.733Z,21.70
2018-01-27T17:30:09.966Z,23.27
2018-01-27T17:32:36.225Z,22.37
2018-01-27T17:35:04.163Z,20.23
2018-01-27T17:37:30.404Z,23.12
2018-01-27T17:39:56.677Z,22.30
2018-01-27T17:42:22.973Z,24.60
2018-01-27T17:44:49.920Z,22.00
2018-01-27T17:47:16.172Z,24.15
2018-01-27T17:49:42.434Z,20.95
2018-01-27T17:52:14.578Z,25.15
2018-01-27T17:54:41.398Z,22.10
2018-01-27T17:57:07.641Z,24.92
2018-01-27T17:59:33.920Z,21.10
2018-01-27T18:02:00.193Z,23.10
2018-01-27T18:04:26.456Z,20.35
2018-01-27T18:06:52.710Z,18.73
2018-01-27T18:09:22.589Z,21.87
2018-01-27T18:11:48.785Z,18.98
2018-01-27T18:14:15.009Z,17.40
2018-01-27T18:16:41.232Z,15.38
2018-01-27T18:19:07.276Z,17.80
2018-01-27T18:21:33.555Z,19.80
2018-01-27T18:23:59.644Z,16.77
2018-01-27T18:26:26.441Z,16.60
2018-01-27T18:28:56.095Z,15.13
2018-01-27T18:31:23.984Z,20.50
2018-01-27T18:33:50.980Z,16.40
2018-01-27T18:36:17.401Z,14.23
2018-01-27T18:38:43.660Z,20.75
2018-01-27T18:41:10.208Z,13.32
2018-01-27T18:43:36.988Z,13.55
2018-01-27T18:46:04.544Z,21.80
2018-01-27T18:48:31.533Z,16.10
2018-01-27T18:50:57.752Z,17.30
2018-01-27T18:53:24.716Z,17.95
2018-01-27T18:55:51.691Z,14.65
2018-01-27T18:58:17.927Z,14.40
2018-01-27T19:00:44.872Z,11.93
2018-01-27T19:03:15.364Z,12.77
2018-01-27T19:05:41.601Z,12.88
2018-01-27T19:08:08.058Z,12.50
2018-01-27T19:10:34.325Z,12.23
2018-01-27T19:13:01.336Z,13.57
2018-01-27T19:15:27.600Z,14.65
2018-01-27T19:17:53.804Z,12.48
2018-01-27T19:20:22.956Z,14.60
2018-01-27T19:22:49.181Z,12.27
2018-01-27T19:25:17.198Z,10.23
2018-01-27T19:27:43.554Z,12.70
2018-01-27T19:30:09.584Z,13.07
2018-01-27T19:32:35.648Z,12.27
2018-01-27T19:35:01.684Z,8.73
2018-01-27T19:37:28.089Z,10.73
2018-01-27T19:39:59.274Z,10.55
2018-01-27T19:42:26.040Z,12.57
2018-01-27T19:44:52.109Z,9.65
2018-01-27T19:47:18.880Z,11.38
2018-01-27T19:49:45.119Z,8.57
2018-01-27T19:52:11.353Z,11.60
2018-01-27T19:54:41.221Z,11.57
2018-01-27T19:57:07.505Z,12.70
2018-01-27T19:59:34.577Z,9.52
2018-01-27T20:02:00.806Z,9.18
2018-01-27T20:04:27.040Z,9.25
2018-01-27T20:06:53.293Z,9.52
2018-01-27T20:09:19.504Z,8.25
2018-01-27T20:11:45.729Z,8.50
2018-01-27T20:14:12.876Z,7.43
2018-01-27T20:16:39.645Z,7.57
2018-01-27T20:19:06.387Z,8.77
2018-01-27T20:21:33.159Z,7.37
2018-01-27T20:23:59.397Z,8.88
2018-01-27T20:26:25.845Z,6.85
2018-01-27T20:28:52.665Z,9.95
2018-01-27T20:31:18.901Z,9.10
2018-01-27T20:33:44.932Z,7.93
2018-01-27T20:36:12.217Z,7.72
2018-01-27T20:38:38.383Z,6.47
2018-01-27T20:41:05.288Z,7.05
2018-01-27T20:43:32.292Z,9.10
2018-01-27T20:45:58.320Z,6.12
2018-01-27T20:48:25.281Z,6.20
2018-01-27T20:50:52.068Z,7.18
2018-01-27T20:53:18.321Z,5.85
2018-01-27T20:55:44.401Z,5.80
2018-01-27T20:58:10.587Z,8.52
2018-01-27T21:00:37.002Z,8.07
2018-01-27T21:03:03.305Z,8.65
2018-01-27T21:05:29.528Z,5.82
2018-01-27T21:07:55.795Z,7.53
2018-01-27T21:10:22.036Z,6.90
2018-01-27T21:12:48.497Z,8.13
2018-01-27T21:15:14.809Z,7.20
2018-01-27T21:17:41.057Z,9.35
2018-01-27T21:20:09.133Z,5.10
2018-01-27T21:22:36.144Z,6.30
2018-01-27T21:25:05.598Z,9.60
2018-01-27T21:27:32.408Z,9.98
2018-01-27T21:29:59.187Z,8.05
2018-01-27T21:32:25.304Z,7.40
2018-01-27T21:34:52.137Z,7.72
2018-01-27T21:37:18.388Z,6.30
2018-01-27T21:39:45.420Z,5.90
2018-01-27T21:42:11.689Z,8.68
2018-01-27T21:44:39.393Z,6.75
2018-01-27T21:47:05.814Z,6.07
2018-01-27T21:49:32.152Z,9.88
2018-01-27T21:51:59.140Z,6.30
2018-01-27T21:54:25.394Z,7.62
2018-01-27T21:56:52.348Z,5.75
2018-01-27T21:59:19.288Z,5.70
2018-01-27T22:01:46.074Z,4.87
2018-01-27T22:04:12.326Z,7.60
2018-01-27T22:06:38.402Z,5.40
2018-01-27T22:09:04.611Z,6.85
2018-01-27T22:11:30.625Z,7.05
2018-01-27T22:13:56.665Z,4.68
2018-01-27T22:16:24.945Z,6.57
2018-01-27T22:18:51.175Z,5.90
2018-01-27T22:21:19.028Z,6.90
2018-01-27T22:23:46.026Z,4.87
2018-01-27T22:26:13.269Z,7.03
2018-01-27T22:28:39.517Z,6.22
2018-01-27T22:31:05.869Z,5.78
2018-01-27T22:33:32.120Z,5.47
2018-01-27T22:35:59.198Z,3.65
2018-01-27T22:38:25.467Z,11.07
2018-01-27T22:40:51.518Z,3.10
2018-01-27T22:43:17.712Z,4.82
2018-01-27T22:45:44.540Z,4.40
2018-01-27T22:48:10.620Z,5.82
2018-01-27T22:50:36.649Z,6.60
2018-01-27T22:53:03.672Z,3.70
2018-01-27T22:55:30.153Z,3.22
2018-01-27T22:57:56.475Z,4.30
2018-01-27T23:00:22.783Z,8.52
2018-01-27T23:02:49.019Z,4.12
2018-01-27T23:05:15.284Z,3.37
2018-01-27T23:07:41.674Z,6.68
2018-01-27T23:10:07.917Z,2.95
2018-01-27T23:12:34.932Z,4.22
2018-01-27T23:15:01.200Z,11.75
2018-01-27T23:17:28.282Z,4.95
2018-01-27T23:19:54.536Z,2.97
2018-01-27T23:22:20.877Z,4.53
2018-01-27T23:24:47.183Z,6.37
2018-01-27T23:27:13.652Z,5.25
2018-01-27T23:29:40.716Z,5.30
2018-01-27T23:32:08.384Z,4.95
2018-01-27T23:34:34.495Z,4.28
2018-01-27T23:37:00.520Z,6.32
2018-01-27T23:39:26.677Z,7.57
2018-01-27T23:41:53.056Z,5.03
2018-01-27T23:44:19.255Z,5.30
2018-01-27T23:46:45.302Z,8.75
2018-01-27T23:49:11.512Z,5.45
2018-01-27T23:51:37.711Z,4.70
2018-01-27T23:54:03.977Z,5.97
2018-01-27T23:56:30.321Z,6.65
2018-01-27T23:58:57.176Z,11.85
